Time;durP1;ratioP1;P1;durP2;ratioP2;P2;SDS_P1;SDS_P2;PMS_P1;PMS_P2;Temp;Humidity;BMP_temperature;BMP_pressure;BME280_temperature;BME280_humidity;BME280_pressure;Samples;Min_cycle;Max_cycle;Signal;HPM_P1;HPM_P2
2023/10/08 00:01:04;;;;;;;244.17;223.50;;;19.50;1.00;;;;;;5151015;27;20964;-76
2023/10/08 00:03:29;;;;;;;212.03;193.57;;;19.50;1.00;;;;;;5151126;27;20419;-76
2023/10/08 00:05:56;;;;;;;245.87;224.07;;;19.50;1.00;;;;;;5151183;27;20487;-76
2023/10/08 00:08:22;;;;;;;269.27;246.00;;;19.50;1.00;;;;;;5129382;28;20658;-76
2023/10/08 00:10:48;;;;;;;327.80;300.77;;;19.50;1.00;;;;;;5118595;27;20404;-76
2023/10/08 00:13:18;;;;;;;146.90;133.40;;;19.40;1.00;;;;;;5136851;27;20430;-76
2023/10/08 00:15:54;;;;;;;245.50;223.37;;;19.40;1.00;;;;;;5136848;27;20427;-76
2023/10/08 00:18:22;;;;;;;169.53;154.50;;;19.40;1.00;;;;;;5119932;27;20481;-76
2023/10/08 00:20:54;;;;;;;170.03;154.33;;;19.40;1.00;;;;;;5137404;27;20404;-76
2023/10/08 00:23:21;;;;;;;138.27;124.67;;;19.30;1.00;;;;;;5118288;27;20469;-76
2023/10/08 00:25:50;;;;;;;180.07;165.57;;;19.30;1.00;;;;;;5136663;27;20487;-76
2023/10/08 00:28:17;;;;;;;123.83;111.03;;;19.20;1.00;;;;;;5136663;27;20415;-76
2023/10/08 00:30:43;;;;;;;166.63;151.50;;;19.30;1.00;;;;;;5137169;27;20404;-76
2023/10/08 00:33:09;;;;;;;105.50;94.07;;;19.30;1.00;;;;;;5136465;27;20865;-76
2023/10/08 00:35:40;;;;;;;480.37;159.97;;;19.20;1.00;;;;;;5136471;27;20404;-76
2023/10/08 00:38:08;;;;;;;200.60;187.87;;;19.10;1.00;;;;;;5117924;27;20444;-76
2023/10/08 00:40:40;;;;;;;539.53;508.97;;;19.10;1.00;;;;;;5136672;27;20403;-76
2023/10/08 00:43:10;;;;;;;592.97;557.73;;;19.00;1.00;;;;;;5117851;27;20424;-76
2023/10/08 00:45:42;;;;;;;659.63;621.30;;;18.90;1.00;;;;;;5136959;27;20392;-76
2023/10/08 00:48:09;;;;;;;732.90;687.90;;;18.90;1.00;;;;;;5136534;27;20395;-76
2023/10/08 00:50:42;;;;;;;739.27;692.83;;;18.80;1.00;;;;;;5136206;27;20395;-76
2023/10/08 00:53:17;;;;;;;725.53;680.53;;;18.90;1.00;;;;;;5136416;27;20784;-76
2023/10/08 00:55:50;;;;;;;771.13;722.93;;;18.90;1.00;;;;;;5136228;27;20394;-76
2023/10/08 00:58:23;;;;;;;782.87;733.73;;;18.80;1.00;;;;;;5117437;27;20456;-76
2023/10/08 01:00:52;;;;;;;783.00;732.57;;;18.80;1.00;;;;;;5117619;27;20474;-76
2023/10/08 01:03:19;;;;;;;841.50;785.93;;;18.80;1.00;;;;;;5135971;27;20431;-76
2023/10/08 01:05:49;;;;;;;842.73;788.30;;;18.80;1.00;;;;;;5136161;27;20404;-76
2023/10/08 01:08:22;;;;;;;856.37;800.70;;;18.80;1.00;;;;;;5136446;27;20400;-78
2023/10/08 01:10:53;;;;;;;874.00;816.37;;;18.80;1.00;;;;;;5137854;27;20388;-78
2023/10/08 01:13:22;;;;;;;888.77;829.23;;;18.80;1.00;;;;;;5137622;27;20489;-78
2023/10/08 01:15:51;;;;;;;1002.00;927.67;;;18.80;1.00;;;;;;5137925;27;20408;-78
2023/10/08 01:18:29;;;;;;;915.93;854.83;;;18.80;1.00;;;;;;5136811;27;20452;-76
2023/10/08 01:20:56;;;;;;;982.37;912.97;;;18.70;1.00;;;;;;5136724;27;20381;-78
2023/10/08 01:23:22;;;;;;;944.43;878.80;;;18.70;1.00;;;;;;5119605;27;20979;-78
2023/10/08 01:25:52;;;;;;;1002.03;932.07;;;18.80;1.00;;;;;;5137758;27;20495;-78
2023/10/08 01:28:33;;;;;;;1002.87;930.73;;;18.80;1.00;;;;;;5135912;27;20431;-76
2023/10/08 01:31:04;;;;;;;994.93;924.90;;;18.60;1.00;;;;;;5135692;27;20384;-76
2023/10/08 01:33:31;;;;;;;1020.77;945.90;;;18.60;1.00;;;;;;5135306;27;20424;-76
2023/10/08 01:36:02;;;;;;;1046.60;970.27;;;18.50;1.00;;;;;;5135272;27;20439;-76
2023/10/08 01:38:32;;;;;;;1071.03;992.53;;;18.40;1.00;;;;;;5116779;27;20972;-76
2023/10/08 01:41:18;;;;;;;1058.27;979.27;;;18.40;1.00;;;;;;5135370;27;20384;-76
2023/10/08 01:43:44;;;;;;;1089.77;999.90;;;18.40;1.00;;;;;;5135139;27;20423;-76
2023/10/08 01:46:11;;;;;;;1064.93;983.83;;;18.30;1.00;;;;;;5135075;27;20451;-76
2023/10/08 01:48:41;;;;;;;1071.90;989.23;;;18.30;1.00;;;;;;5116678;27;20981;-76
2023/10/08 01:51:11;;;;;;;1094.40;999.90;;;18.30;1.00;;;;;;5135854;27;20795;-76
2023/10/08 01:53:39;;;;;;;1113.63;999.90;;;18.20;1.00;;;;;;5134830;27;20515;-76
2023/10/08 01:56:05;;;;;;;1097.13;999.90;;;18.20;1.00;;;;;;5134923;27;20396;-76
2023/10/08 01:58:33;;;;;;;1096.47;999.90;;;18.10;1.00;;;;;;5135595;27;20460;-78
2023/10/08 02:00:59;;;;;;;1103.90;999.90;;;18.00;1.00;;;;;;5135681;27;20892;-78
2023/10/08 02:03:27;;;;;;;1093.23;999.90;;;18.10;1.00;;;;;;5135520;27;20420;-78
2023/10/08 02:05:53;;;;;;;1122.70;999.90;;;18.10;1.00;;;;;;5135631;27;20411;-78
2023/10/08 02:08:20;;;;;;;1098.40;999.90;;;18.00;1.00;;;;;;5135681;27;20448;-78
2023/10/08 02:10:48;;;;;;;1149.33;999.90;;;18.00;1.00;;;;;;5116612;27;20404;-76
2023/10/08 02:13:16;;;;;;;1148.33;999.90;;;18.00;1.00;;;;;;5135376;27;20443;-78
2023/10/08 02:15:47;;;;;;;1212.93;999.90;;;18.00;1.00;;;;;;5136415;27;20431;-78
2023/10/08 02:18:13;;;;;;;1219.77;999.90;;;17.90;1.00;;;;;;5118094;27;20447;-78
2023/10/08 02:20:39;;;;;;;1212.23;999.90;;;17.90;1.00;;;;;;5135476;27;20539;-76
2023/10/08 02:23:05;;;;;;;1230.50;999.90;;;17.80;1.00;;;;;;5134593;27;20412;-76
2023/10/08 02:25:31;;;;;;;1231.90;999.90;;;17.80;1.00;;;;;;5134405;27;20396;-76
2023/10/08 02:27:57;;;;;;;1233.07;999.90;;;17.70;1.00;;;;;;5134451;27;20581;-76
2023/10/08 02:30:23;;;;;;;1258.17;999.90;;;17.70;1.00;;;;;;5134987;27;20400;-76
2023/10/08 02:37:54;;;;;;;1201.83;999.90;;;17.50;1.00;;;;;;5071413;28;20466;-76
2023/10/08 02:40:26;;;;;;;1176.07;999.90;;;17.60;1.00;;;;;;5073018;28;20399;-76
2023/10/08 02:43:00;;;;;;;1203.40;999.90;;;17.60;1.00;;;;;;5073326;28;20494;-76
2023/10/08 02:45:27;;;;;;;1201.23;999.90;;;17.70;1.00;;;;;;5073255;28;20371;-76
2023/10/08 02:47:53;;;;;;;1173.50;999.90;;;17.70;1.00;;;;;;5055010;28;20398;-76
2023/10/08 02:50:19;;;;;;;1173.13;999.90;;;17.60;1.00;;;;;;5072995;28;20391;-76
2023/10/08 02:52:45;;;;;;;1164.90;999.90;;;17.50;1.00;;;;;;5072832;28;20957;-76
2023/10/08 02:58:18;;;;;;;1099.27;995.30;;;17.50;1.00;;;;;;5050019;28;20458;-76
2023/10/08 03:00:49;;;;;;;1176.23;999.90;;;17.50;1.00;;;;;;5073035;28;20474;-76
2023/10/08 03:03:18;;;;;;;1154.30;999.90;;;17.50;1.00;;;;;;5054866;28;20537;-76
2023/10/08 03:05:52;;;;;;;1110.70;998.90;;;17.50;1.00;;;;;;5072836;28;20407;-76
2023/10/08 03:08:22;;;;;;;1144.97;999.90;;;17.50;1.00;;;;;;5072859;28;20841;-76
2023/10/08 03:11:26;;;;;;;1119.60;999.90;;;17.50;1.00;;;;;;5072940;28;20415;-76
2023/10/08 03:13:46;;;;;;;1069.53;981.73;;;17.50;1.00;;;;;;5069494;28;20433;-76
2023/10/08 03:16:13;;;;;;;1124.90;999.90;;;17.40;1.80;;;;;;5072756;28;20434;-76
2023/10/08 03:18:45;;;;;;;1157.70;999.90;;;17.40;4.00;;;;;;5054633;28;20449;-76
2023/10/08 03:21:55;;;;;;;1100.77;997.43;;;17.40;1.00;;;;;;5073017;28;20384;-76
2023/10/08 03:24:00;;;;;;;1085.87;991.33;;;17.50;2.00;;;;;;5066838;28;20407;-76
2023/10/08 03:26:35;;;;;;;1094.93;995.90;;;17.50;1.00;;;;;;5072961;28;20411;-78
2023/10/08 03:29:07;;;;;;;1103.83;998.03;;;17.50;1.00;;;;;;5053819;28;20403;-76
2023/10/08 03:34:15;;;;;;;1106.80;998.10;;;17.40;1.00;;;;;;5074247;28;20383;-79
2023/10/08 03:36:45;;;;;;;1118.93;999.90;;;17.40;1.00;;;;;;5074824;28;20440;-79
2023/10/08 03:39:14;;;;;;;1100.37;996.90;;;17.40;1.00;;;;;;5057325;28;20912;-78
2023/10/08 03:41:41;;;;;;;1106.37;999.07;;;17.30;1.00;;;;;;5074885;28;20922;-76
2023/10/08 03:44:14;;;;;;;1097.53;995.87;;;17.40;1.00;;;;;;5074964;28;20571;-78
2023/10/08 03:46:43;;;;;;;1085.50;990.53;;;17.40;1.00;;;;;;5078423;28;20383;-78
2023/10/08 03:51:48;;;;;;;1105.00;998.70;;;17.30;1.00;;;;;;5077268;28;20418;-78
2023/10/08 03:54:29;;;;;;;1104.93;997.80;;;17.20;3.10;;;;;;5077700;28;20445;-78
2023/10/08 03:56:56;;;;;;;1031.87;946.50;;;17.20;5.40;;;;;;5061162;28;20442;-78
2023/10/08 04:02:39;;;;;;;1032.73;946.90;;;17.20;9.50;;;;;;5080250;28;20448;-78
2023/10/08 04:04:57;;;;;;;1029.97;947.60;;;17.10;17.60;;;;;;5075389;28;20761;-78
2023/10/08 04:07:28;;;;;;;1034.40;951.40;;;17.00;21.50;;;;;;5058780;28;20544;-76
2023/10/08 04:12:44;;;;;;;1048.17;962.10;;;17.10;14.10;;;;;;5076880;28;20433;-78
2023/10/08 04:15:12;;;;;;;1024.03;942.07;;;17.10;10.50;;;;;;5076329;28;20390;-76
2023/10/08 04:17:44;;;;;;;1021.87;939.03;;;17.10;16.90;;;;;;5075986;28;20454;-78
2023/10/08 04:23:03;;;;;;;937.67;868.40;;;17.10;27.90;;;;;;5076098;28;20532;-76
2023/10/08 04:25:31;;;;;;;979.20;904.13;;;17.10;32.70;;;;;;5075543;28;20399;-76
2023/10/08 04:28:01;;;;;;;965.13;888.17;;;17.00;30.60;;;;;;5075715;28;20858;-76
2023/10/08 04:30:36;;;;;;;988.87;909.53;;;17.10;42.10;;;;;;5075429;28;20498;-76
2023/10/08 04:33:06;;;;;;;973.40;895.30;;;17.00;39.70;;;;;;5075599;28;20475;-76
2023/10/08 04:35:48;;;;;;;1026.10;941.77;;;17.10;22.30;;;;;;5075836;28;20391;-76
2023/10/08 04:38:17;;;;;;;989.77;910.87;;;17.10;20.70;;;;;;5075632;28;20795;-76
2023/10/08 04:40:48;;;;;;;999.93;920.20;;;17.10;16.20;;;;;;5075528;28;20436;-76
2023/10/08 04:43:24;;;;;;;1047.13;960.50;;;17.20;6.40;;;;;;5075428;28;20421;-76
2023/10/08 04:45:57;;;;;;;1058.80;971.03;;;17.20;4.20;;;;;;5075466;28;20461;-76
2023/10/08 04:48:31;;;;;;;1008.97;925.77;;;17.20;1.00;;;;;;5075164;28;20734;-76
2023/10/08 04:51:01;;;;;;;975.57;895.73;;;17.20;1.00;;;;;;5057090;28;20498;-76
2023/10/08 04:53:36;;;;;;;1027.13;943.83;;;17.20;1.00;;;;;;5074914;28;20454;-76
2023/10/08 04:56:06;;;;;;;953.03;875.17;;;17.20;1.00;;;;;;5056801;28;20403;-76
2023/10/08 04:58:35;;;;;;;952.03;874.40;;;17.20;1.00;;;;;;5056756;28;20815;-76
2023/10/08 05:01:17;;;;;;;958.83;882.23;;;17.20;1.00;;;;;;5056963;28;20494;-76
2023/10/08 05:11:46;;;;;;;878.17;808.33;;;17.10;1.00;;;;;;5074931;28;20462;-77
2023/10/08 05:20:17;;;;;;;780.07;721.03;;;17.10;1.00;;;;;;5075062;28;20394;-76
2023/10/08 05:22:44;;;;;;;780.03;722.43;;;17.10;1.00;;;;;;5074396;28;20427;-76
2023/10/08 05:25:24;;;;;;;816.77;757.07;;;17.00;1.00;;;;;;5075560;28;20421;-76
2023/10/08 05:30:41;;;;;;;838.40;777.60;;;16.90;1.00;;;;;;5074871;28;20437;-76
2023/10/08 05:33:25;;;;;;;816.73;757.90;;;16.90;1.00;;;;;;5074595;28;20418;-76
2023/10/08 05:36:02;;;;;;;810.40;752.73;;;16.70;6.60;;;;;;5074308;28;20427;-76
2023/10/08 05:38:48;;;;;;;858.60;794.87;;;16.80;4.00;;;;;;5074303;28;20434;-76
2023/10/08 05:46:51;;;;;;;772.80;718.37;;;16.80;2.20;;;;;;4992971;28;20402;-76
2023/10/08 05:49:36;;;;;;;801.50;742.77;;;16.80;2.50;;;;;;5034562;28;20499;-76
2023/10/08 05:54:35;;;;;;;832.03;773.93;;;16.80;11.80;;;;;;5074089;28;20399;-76
2023/10/08 06:13:06;;;;;;;834.10;780.53;;;16.60;17.30;;;;;;5074263;28;20423;-76
2023/10/08 06:18:04;;;;;;;880.17;822.60;;;16.70;19.10;;;;;;5321300;22;20528;-77
2023/10/08 06:20:30;;;;;;;917.20;858.37;;;16.60;22.50;;;;;;5075677;28;20403;-77
2023/10/08 06:23:03;;;;;;;891.50;832.97;;;16.60;25.00;;;;;;5057176;28;20427;-77
2023/10/08 06:25:30;;;;;;;866.47;810.20;;;16.70;24.60;;;;;;5056550;28;20155;-77
2023/10/08 06:27:57;;;;;;;855.33;800.33;;;16.70;20.70;;;;;;5074386;28;20405;-77
2023/10/08 06:30:24;;;;;;;863.27;790.67;;;16.80;19.20;;;;;;5074983;28;20403;-77
2023/10/08 06:32:50;;;;;;;540.30;511.53;;;16.80;18.60;;;;;;5074828;28;20454;-77
2023/10/08 06:35:24;;;;;;;509.13;481.83;;;16.70;30.40;;;;;;5074904;28;20402;-77
2023/10/08 06:37:59;;;;;;;447.37;422.67;;;16.70;45.80;;;;;;5075319;28;20831;-77
2023/10/08 06:43:11;;;;;;;472.87;447.47;;;16.60;69.00;;;;;;5074652;28;20438;-77
2023/10/08 06:45:39;;;;;;;496.57;470.30;;;16.60;79.10;;;;;;5057167;28;20479;-77
2023/10/08 06:48:06;;;;;;;462.53;437.20;;;16.40;78.70;;;;;;5075034;28;20749;-77
2023/10/08 06:50:34;;;;;;;494.97;468.87;;;16.50;75.50;;;;;;5074100;28;20485;-77
2023/10/08 06:53:05;;;;;;;475.97;450.27;;;16.50;76.70;;;;;;5074005;28;20450;-77
2023/10/08 06:55:33;;;;;;;290.60;272.83;;;16.50;74.80;;;;;;5074009;28;20423;-77
2023/10/08 06:58:00;;;;;;;327.83;309.33;;;16.70;71.50;;;;;;5073949;28;21008;-77
2023/10/08 07:03:10;;;;;;;313.47;295.40;;;16.90;43.00;;;;;;5074286;28;20480;-77
2023/10/08 07:05:40;;;;;;;308.47;290.60;;;17.00;38.50;;;;;;5074610;28;20773;-77
2023/10/08 07:08:07;;;;;;;285.63;268.37;;;17.20;33.70;;;;;;5074418;28;20411;-77
2023/10/08 07:10:36;;;;;;;288.73;271.47;;;17.20;29.40;;;;;;5074147;28;20402;-77
2023/10/08 07:13:07;;;;;;;282.43;265.53;;;17.30;29.60;;;;;;5074071;28;20429;-77
2023/10/08 07:15:38;;;;;;;293.17;276.10;;;17.30;29.90;;;;;;5056180;28;20546;-77
2023/10/08 07:18:09;;;;;;;270.00;253.80;;;17.40;29.20;;;;;;5040286;28;20458;-77
2023/10/08 07:20:41;;;;;;;268.97;252.77;;;17.50;22.30;;;;;;5060144;28;20414;-77
2023/10/08 07:23:24;;;;;;;251.37;235.83;;;17.50;25.20;;;;;;5078523;28;20436;-77
2023/10/08 07:26:05;;;;;;;273.03;256.73;;;17.50;28.80;;;;;;5060161;28;20398;-77
2023/10/08 07:28:35;;;;;;;255.30;239.60;;;17.60;24.80;;;;;;5078572;28;20395;-77
2023/10/08 07:31:02;;;;;;;280.83;264.63;;;17.60;24.80;;;;;;5078225;28;20499;-77
2023/10/08 07:33:36;;;;;;;264.97;249.37;;;17.50;26.10;;;;;;5059580;28;20430;-77
2023/10/08 07:36:11;;;;;;;209.00;195.10;;;17.60;29.10;;;;;;5059672;28;20411;-77
2023/10/08 07:38:39;;;;;;;347.80;328.10;;;17.60;27.70;;;;;;5077528;28;20430;-77
2023/10/08 07:41:05;;;;;;;233.27;218.23;;;17.70;32.40;;;;;;5059661;28;20410;-77
2023/10/08 07:43:32;;;;;;;237.83;222.87;;;17.80;25.30;;;;;;5059714;28;20426;-77
2023/10/08 07:45:58;;;;;;;235.80;220.80;;;17.90;17.80;;;;;;5059339;28;20466;-77
2023/10/08 07:48:29;;;;;;;238.43;223.03;;;17.90;12.60;;;;;;5077252;28;20403;-77
2023/10/08 07:50:56;;;;;;;240.93;225.43;;;18.00;15.10;;;;;;5077456;28;20387;-77
2023/10/08 07:53:24;;;;;;;211.63;197.50;;;18.00;12.50;;;;;;5059122;28;20458;-77
2023/10/08 07:55:51;;;;;;;208.23;193.93;;;18.10;10.80;;;;;;5077085;28;20399;-77
2023/10/08 07:58:17;;;;;;;213.80;199.03;;;18.20;1.00;;;;;;5077369;28;20443;-77
2023/10/08 08:00:53;;;;;;;197.40;183.60;;;18.10;3.70;;;;;;5077108;28;20401;-77
2023/10/08 08:03:20;;;;;;;202.90;189.37;;;18.20;2.70;;;;;;5058923;28;20425;-77
2023/10/08 08:05:47;;;;;;;217.53;202.87;;;18.20;1.00;;;;;;5076826;28;20398;-77
2023/10/08 08:08:17;;;;;;;218.40;202.73;;;18.20;1.00;;;;;;5059218;28;20411;-77
2023/10/08 08:10:44;;;;;;;218.10;204.03;;;18.20;1.70;;;;;;5077142;28;20399;-77
2023/10/08 08:13:11;;;;;;;199.53;185.30;;;18.40;1.00;;;;;;5076564;28;20415;-77
2023/10/08 08:15:41;;;;;;;199.47;185.97;;;18.40;1.70;;;;;;5076627;28;20431;-77
2023/10/08 08:18:07;;;;;;;197.87;183.93;;;18.40;3.50;;;;;;5076312;28;20458;-77
2023/10/08 08:20:38;;;;;;;207.87;193.93;;;18.40;3.00;;;;;;5076146;28;20382;-77
2023/10/08 08:23:08;;;;;;;222.90;208.50;;;18.40;1.00;;;;;;5076231;28;20427;-77
2023/10/08 08:26:06;;;;;;;198.83;184.77;;;18.40;1.00;;;;;;5076758;28;20398;-77
2023/10/08 08:28:32;;;;;;;222.80;208.17;;;18.40;1.00;;;;;;5076891;28;20387;-77
2023/10/08 08:31:13;;;;;;;205.03;191.23;;;18.40;1.00;;;;;;5076127;28;20962;-77
2023/10/08 08:33:52;;;;;;;212.53;198.23;;;18.40;1.00;;;;;;5076691;28;20425;-77
2023/10/08 08:36:22;;;;;;;209.10;194.50;;;18.40;1.00;;;;;;5076763;28;21004;-77
2023/10/08 08:38:48;;;;;;;211.07;197.13;;;18.40;1.00;;;;;;5076144;28;20439;-77
2023/10/08 08:41:17;;;;;;;210.73;196.20;;;18.60;1.00;;;;;;5075466;28;20768;-77
2023/10/08 08:43:47;;;;;;;211.83;197.63;;;18.60;1.00;;;;;;5075456;28;20796;-77
2023/10/08 08:46:13;;;;;;;195.13;181.43;;;18.70;1.00;;;;;;5075300;28;20395;-77
2023/10/08 08:48:46;;;;;;;215.43;201.37;;;18.70;1.00;;;;;;5075256;28;20409;-77
2023/10/08 08:51:13;;;;;;;206.17;192.33;;;18.60;1.00;;;;;;5075269;28;20383;-77
2023/10/08 08:53:40;;;;;;;200.50;186.70;;;18.70;1.00;;;;;;5075448;28;20448;-77
2023/10/08 08:56:09;;;;;;;197.13;183.67;;;18.70;1.00;;;;;;5075145;28;20411;-77
2023/10/08 08:58:36;;;;;;;184.03;170.93;;;18.70;1.00;;;;;;5075416;28;20447;-77
2023/10/08 09:01:05;;;;;;;198.67;184.57;;;18.70;1.00;;;;;;5075139;28;20406;-77
2023/10/08 09:03:30;;;;;;;213.33;199.07;;;18.70;1.00;;;;;;5075028;28;20472;-77
2023/10/08 09:05:57;;;;;;;194.80;181.40;;;18.80;1.00;;;;;;5074978;28;20403;-77
2023/10/08 09:08:27;;;;;;;199.50;186.60;;;18.90;1.00;;;;;;5075015;28;20278;-77
2023/10/08 09:11:00;;;;;;;190.10;177.17;;;19.00;1.00;;;;;;5074938;28;20387;-77
2023/10/08 09:13:27;;;;;;;188.20;175.10;;;19.10;1.00;;;;;;5074727;28;20434;-77
2023/10/08 09:16:03;;;;;;;189.73;176.60;;;19.20;1.00;;;;;;5074881;28;20411;-77
2023/10/08 09:18:32;;;;;;;192.87;179.33;;;19.40;1.00;;;;;;5056972;28;20458;-77
2023/10/08 09:21:10;;;;;;;176.17;163.70;;;19.40;1.00;;;;;;5057178;28;20480;-77
2023/10/08 09:23:47;;;;;;;185.67;172.67;;;19.40;1.00;;;;;;5057407;28;20509;-77
2023/10/08 09:26:14;;;;;;;180.63;168.23;;;19.40;1.00;;;;;;5074499;28;20383;-77
2023/10/08 09:28:46;;;;;;;93.82;85.78;;;19.50;1.00;;;;;;5056514;28;20973;-77
2023/10/08 09:31:12;;;;;;;141.60;131.03;;;19.60;1.00;;;;;;5074711;28;20167;-77
2023/10/08 09:33:39;;;;;;;49.80;36.80;;;19.80;1.00;;;;;;5074024;28;20402;-77
2023/10/08 09:36:07;;;;;;;112.50;103.03;;;19.90;1.00;;;;;;5056432;28;20168;-77
2023/10/08 09:38:36;;;;;;;124.30;113.70;;;19.90;1.00;;;;;;5074286;28;20450;-77
2023/10/08 09:41:03;;;;;;;138.93;128.00;;;20.00;1.00;;;;;;5074167;28;20868;-77
2023/10/08 09:43:30;;;;;;;141.23;129.53;;;20.00;1.00;;;;;;5073787;28;20866;-77
2023/10/08 09:46:08;;;;;;;141.90;130.77;;;20.00;1.00;;;;;;5074272;28;20433;-77
2023/10/08 09:48:37;;;;;;;149.80;137.83;;;20.00;1.00;;;;;;5056103;28;20418;-77
2023/10/08 09:51:06;;;;;;;144.27;132.97;;;20.00;1.00;;;;;;5074250;28;20443;-77
2023/10/08 09:53:53;;;;;;;142.43;130.87;;;20.00;1.00;;;;;;5055946;28;20436;-77
2023/10/08 09:56:20;;;;;;;136.10;124.83;;;20.00;1.00;;;;;;5074597;28;20384;-77
2023/10/08 09:58:49;;;;;;;144.87;133.80;;;19.80;1.00;;;;;;5074128;28;20504;-77
2023/10/08 10:01:17;;;;;;;144.47;133.13;;;19.90;1.00;;;;;;5074373;28;20807;-77
2023/10/08 10:03:44;;;;;;;144.67;133.53;;;20.00;1.00;;;;;;5074009;28;20486;-77
2023/10/08 10:06:18;;;;;;;146.83;136.13;;;20.00;1.00;;;;;;5074212;28;20399;-77
2023/10/08 10:08:45;;;;;;;143.30;132.10;;;20.10;1.00;;;;;;5055900;28;20468;-77
2023/10/08 10:11:11;;;;;;;118.73;108.13;;;20.10;1.00;;;;;;5073903;28;20438;-76
2023/10/08 10:13:49;;;;;;;97.37;87.83;;;20.10;1.00;;;;;;5073763;28;20430;-77
2023/10/08 10:16:19;;;;;;;135.00;124.03;;;20.00;1.00;;;;;;5074194;28;20386;-77
2023/10/08 10:18:48;;;;;;;124.70;114.03;;;20.00;1.00;;;;;;5073435;28;20454;-77
2023/10/08 10:21:15;;;;;;;125.97;115.67;;;20.00;1.00;;;;;;5073484;28;20751;-77
2023/10/08 10:23:45;;;;;;;129.53;118.73;;;20.00;1.00;;;;;;5073667;28;20779;-77
2023/10/08 10:26:34;;;;;;;138.60;128.13;;;20.10;1.00;;;;;;5073944;28;20482;-77
2023/10/08 10:29:14;;;;;;;124.73;114.60;;;20.10;1.00;;;;;;5073632;28;20422;-77
2023/10/08 10:31:46;;;;;;;137.40;126.57;;;20.10;1.00;;;;;;5073349;28;20402;-77
2023/10/08 10:34:17;;;;;;;129.50;119.17;;;20.00;1.00;;;;;;5055747;28;20963;-77
2023/10/08 10:36:55;;;;;;;144.67;133.37;;;20.00;1.00;;;;;;5055739;28;20422;-77
2023/10/08 10:39:27;;;;;;;108.50;98.77;;;20.10;1.00;;;;;;5073697;28;20398;-77
2023/10/08 10:42:42;;;;;;;122.63;112.53;;;20.10;1.00;;;;;;5073387;28;20414;-77
2023/10/08 10:44:44;;;;;;;125.40;114.80;;;20.10;1.00;;;;;;5062580;28;20410;-77
2023/10/08 10:47:25;;;;;;;101.33;92.27;;;20.30;1.00;;;;;;5073678;28;20394;-77
2023/10/08 10:49:52;;;;;;;111.03;101.03;;;20.30;1.00;;;;;;5073870;28;20462;-77
2023/10/08 10:52:44;;;;;;;121.97;111.33;;;20.60;1.00;;;;;;5073335;28;20434;-77
2023/10/08 10:58:11;;;;;;;110.93;100.93;;;21.00;1.00;;;;;;5073744;28;20470;-77
2023/10/08 11:03:23;;;;;;;100.53;90.90;;;21.10;1.00;;;;;;5073363;28;20525;-77
2023/10/08 11:05:59;;;;;;;100.53;91.20;;;21.20;1.00;;;;;;5057861;28;20391;-77
2023/10/08 11:08:26;;;;;;;79.57;70.27;;;21.30;1.00;;;;;;5074143;28;20397;-77
2023/10/08 11:10:53;;;;;;;78.37;60.87;;;21.40;1.00;;;;;;5073406;28;20493;-77
2023/10/08 11:13:20;;;;;;;81.63;73.20;;;21.70;1.00;;;;;;5073335;28;20481;-77
2023/10/08 11:15:51;;;;;;;76.63;67.53;;;21.80;1.00;;;;;;5073610;28;20545;-77
2023/10/08 11:18:22;;;;;;;82.73;71.70;;;22.00;1.00;;;;;;5073282;28;20522;-77
2023/10/08 11:20:54;;;;;;;77.83;64.80;;;22.20;1.00;;;;;;5073543;28;20395;-77
2023/10/08 11:23:36;;;;;;;62.87;39.60;;;22.20;1.00;;;;;;5073432;28;20811;-77
2023/10/08 11:26:06;;;;;;;67.17;57.23;;;22.30;1.00;;;;;;5073287;28;20876;-77
2023/10/08 11:28:34;;;;;;;67.43;46.17;;;22.30;1.00;;;;;;5073188;28;20489;-77
2023/10/08 11:31:08;;;;;;;76.53;57.13;;;22.40;1.00;;;;;;5072811;28;20403;-77
2023/10/08 11:33:38;;;;;;;60.83;52.30;;;22.40;1.00;;;;;;5073353;28;20414;-77
2023/10/08 11:36:27;;;;;;;65.83;45.03;;;22.40;1.00;;;;;;5073243;28;20813;-77
2023/10/08 11:39:00;;;;;;;63.30;52.83;;;22.30;1.00;;;;;;5073010;28;20531;-77
2023/10/08 11:41:27;;;;;;;65.23;49.73;;;22.40;1.00;;;;;;5073246;28;20379;-77
2023/10/08 11:43:58;;;;;;;67.30;46.13;;;22.40;1.00;;;;;;5073107;28;20405;-77
2023/10/08 11:46:32;;;;;;;67.13;50.83;;;22.30;1.00;;;;;;5073460;28;20466;-77
2023/10/08 11:49:04;;;;;;;58.57;45.07;;;22.30;1.00;;;;;;5073300;28;20379;-77
2023/10/08 11:51:32;;;;;;;66.67;46.40;;;22.40;1.00;;;;;;5055991;28;20411;-77
2023/10/08 11:53:59;;;;;;;61.63;47.17;;;22.40;1.00;;;;;;5072703;28;20497;-77
2023/10/08 11:56:26;;;;;;;59.63;47.10;;;22.30;1.00;;;;;;5073175;28;20763;-77
2023/10/08 11:58:52;;;;;;;58.23;44.60;;;22.30;1.00;;;;;;5073143;28;20445;-77
2023/10/08 12:01:18;;;;;;;62.03;48.27;;;22.20;1.00;;;;;;5072815;28;20442;-77
2023/10/08 12:03:50;;;;;;;62.83;44.03;;;22.20;1.00;;;;;;5072739;28;20419;-77
2023/10/08 12:06:18;;;;;;;57.63;36.87;;;22.20;1.00;;;;;;5075679;28;20410;-77
2023/10/08 12:08:49;;;;;;;62.97;47.80;;;22.40;1.00;;;;;;5076457;28;20411;-77
2023/10/08 12:11:15;;;;;;;61.77;50.70;;;22.50;1.00;;;;;;5076140;28;20387;-77
2023/10/08 12:13:45;;;;;;;57.73;42.03;;;22.50;1.00;;;;;;5076517;28;20422;-77
2023/10/08 12:16:22;;;;;;;64.27;46.07;;;22.40;1.00;;;;;;5076177;28;20399;-77
2023/10/08 12:18:48;;;;;;;63.10;47.60;;;22.20;1.00;;;;;;5076022;28;20453;-77
2023/10/08 12:21:17;;;;;;;64.97;47.77;;;22.10;1.00;;;;;;5076528;28;20406;-77
2023/10/08 12:23:45;;;;;;;63.90;45.27;;;21.90;1.00;;;;;;5076097;28;20953;-77
2023/10/08 12:26:15;;;;;;;66.67;44.80;;;21.90;1.00;;;;;;5076475;28;20532;-77
2023/10/08 12:28:48;;;;;;;70.83;52.93;;;21.70;1.00;;;;;;5058009;28;20432;-77
2023/10/08 12:31:21;;;;;;;63.40;44.87;;;21.70;1.00;;;;;;5076228;28;20382;-77
2023/10/08 12:33:48;;;;;;;71.37;52.17;;;21.50;1.00;;;;;;5075522;28;20549;-77
2023/10/08 12:36:16;;;;;;;63.33;50.17;;;21.40;1.00;;;;;;5075724;28;20423;-77
2023/10/08 12:38:43;;;;;;;66.90;54.80;;;21.50;1.00;;;;;;5075856;28;20447;-77
2023/10/08 12:41:12;;;;;;;65.17;50.20;;;21.50;1.00;;;;;;5075599;28;20395;-77
2023/10/08 12:43:52;;;;;;;67.33;55.17;;;21.40;1.00;;;;;;5075927;28;20553;-77
2023/10/08 12:46:18;;;;;;;69.53;53.40;;;21.50;1.00;;;;;;5075520;28;20740;-77
2023/10/08 12:48:52;;;;;;;68.67;55.37;;;21.40;1.00;;;;;;5075313;28;20399;-77
2023/10/08 12:51:18;;;;;;;72.40;53.33;;;21.30;1.00;;;;;;5075513;28;20378;-77
2023/10/08 12:53:50;;;;;;;72.63;56.70;;;21.20;1.00;;;;;;5075298;28;20423;-77
2023/10/08 12:56:21;;;;;;;73.07;58.17;;;21.20;1.00;;;;;;5075562;28;20375;-77
2023/10/08 12:58:48;;;;;;;66.67;57.57;;;21.10;1.00;;;;;;5057355;28;20466;-78
2023/10/08 13:01:17;;;;;;;70.70;57.77;;;21.20;1.00;;;;;;5075145;28;20391;-77
2023/10/08 13:03:49;;;;;;;73.07;55.90;;;21.20;1.00;;;;;;5075195;28;20418;-77
2023/10/08 13:06:22;;;;;;;76.43;57.40;;;21.10;1.00;;;;;;5075626;28;20383;-77
2023/10/08 13:08:52;;;;;;;72.33;54.67;;;21.10;1.00;;;;;;5075269;28;20470;-77
2023/10/08 13:11:22;;;;;;;67.83;54.23;;;21.10;1.00;;;;;;5075008;28;20907;-77
2023/10/08 13:13:52;;;;;;;72.73;53.83;;;21.10;1.00;;;;;;5074794;28;20989;-77
2023/10/08 13:16:23;;;;;;;76.30;58.37;;;21.20;1.00;;;;;;5075184;28;20817;-77
2023/10/08 13:18:49;;;;;;;70.97;55.00;;;21.30;1.00;;;;;;5074573;28;20451;-77
2023/10/08 13:21:16;;;;;;;70.17;53.90;;;21.40;1.00;;;;;;5074647;28;20406;-77
2023/10/08 13:23:42;;;;;;;69.87;51.03;;;21.50;1.00;;;;;;5074605;28;20411;-77
2023/10/08 13:26:08;;;;;;;70.40;48.20;;;21.50;1.00;;;;;;5074876;28;20383;-77
2023/10/08 13:28:37;;;;;;;69.53;50.53;;;21.50;1.00;;;;;;5074760;28;20399;-77
2023/10/08 13:31:11;;;;;;;71.10;49.97;;;21.50;1.00;;;;;;5074531;28;20417;-77
2023/10/08 13:33:48;;;;;;;65.63;57.47;;;21.40;1.00;;;;;;5074380;28;20852;-77
2023/10/08 13:36:15;;;;;;;70.30;54.80;;;21.30;1.00;;;;;;5056303;28;20398;-77
2023/10/08 13:38:41;;;;;;;70.10;55.50;;;21.30;1.00;;;;;;5056213;28;20446;-77
2023/10/08 13:41:17;;;;;;;64.37;55.53;;;21.30;1.00;;;;;;5074187;28;20402;-77
2023/10/08 13:43:48;;;;;;;64.30;50.93;;;21.20;1.00;;;;;;5288960;22;20608;-77
2023/10/08 13:46:14;;;;;;;74.97;60.97;;;21.20;1.00;;;;;;5287505;22;20886;-77
2023/10/08 13:48:41;;;;;;;72.03;56.17;;;21.20;4.90;;;;;;5176825;22;20565;-77
2023/10/08 13:51:14;;;;;;;70.30;59.77;;;21.20;3.20;;;;;;5076086;28;20406;-77